Time;durP1;ratioP1;P1;durP2;ratioP2;P2;SDS_P1;SDS_P2;PMS_P1;PMS_P2;Temp;Humidity;BMP_temperature;BMP_pressure;BME280_temperature;BME280_humidity;BME280_pressure;Samples;Min_cycle;Max_cycle;Signal;HPM_P1;HPM_P2
2022/04/21 00:00:08;;;;;;;10.70;6.05;;;;;;;;;;5064595;28;20048;-64
2022/04/21 00:02:34;;;;;;;11.63;6.00;;;;;;;;;;5047996;28;20082;-65
2022/04/21 00:05:00;;;;;;;10.65;7.00;;;;;;;;;;5065371;28;20492;-65
2022/04/21 00:07:26;;;;;;;12.88;6.40;;;;;;;;;;5047747;28;20079;-65
2022/04/21 00:09:53;;;;;;;11.40;6.75;;;;;;;;;;5063030;28;20067;-64
2022/04/21 00:12:19;;;;;;;13.18;7.75;;;;;;;;;;5049404;28;20040;-64
2022/04/21 00:14:46;;;;;;;14.02;8.02;;;;;;;;;;5067075;28;20057;-64
2022/04/21 00:17:12;;;;;;;11.98;7.93;;;;;;;;;;5047538;28;20029;-64
2022/04/21 00:19:38;;;;;;;17.50;8.45;;;;;;;;;;5035076;28;20526;-64
2022/04/21 00:24:50;;;;;;;17.20;9.15;;;;;;;;;;5061187;28;20036;-65
2022/04/21 00:27:17;;;;;;;20.42;9.02;;;;;;;;;;5065237;28;20040;-65
2022/04/21 00:29:44;;;;;;;18.20;10.02;;;;;;;;;;5066684;28;20049;-65
2022/04/21 00:32:10;;;;;;;17.70;9.48;;;;;;;;;;5066456;28;20033;-65
2022/04/21 00:34:37;;;;;;;20.40;9.43;;;;;;;;;;5064003;28;20163;-65
2022/04/21 00:37:03;;;;;;;13.52;8.70;;;;;;;;;;5064427;28;20488;-65
2022/04/21 00:39:31;;;;;;;20.55;9.60;;;;;;;;;;5062542;28;20048;-65
2022/04/21 00:41:58;;;;;;;14.75;9.23;;;;;;;;;;5065505;28;20132;-65
2022/04/21 00:44:25;;;;;;;16.05;9.90;;;;;;;;;;5065450;28;20431;-65
2022/04/21 00:46:52;;;;;;;16.75;10.05;;;;;;;;;;5052290;28;20078;-65
2022/04/21 00:49:19;;;;;;;16.95;9.45;;;;;;;;;;5068612;28;20158;-65
2022/04/21 00:51:45;;;;;;;14.68;9.15;;;;;;;;;;5051213;28;20036;-65
2022/04/21 00:54:11;;;;;;;16.58;10.38;;;;;;;;;;5035002;28;20173;-65
2022/04/21 00:56:38;;;;;;;18.23;10.90;;;;;;;;;;5048051;28;20076;-64
2022/04/21 00:59:06;;;;;;;15.55;10.65;;;;;;;;;;5068405;28;20369;-65
2022/04/21 01:04:19;;;;;;;18.55;10.73;;;;;;;;;;5061922;28;20487;-64
2022/04/21 01:06:45;;;;;;;15.98;11.25;;;;;;;;;;5047449;28;20040;-64
2022/04/21 01:09:12;;;;;;;19.77;11.50;;;;;;;;;;5045008;28;20046;-64
2022/04/21 01:11:39;;;;;;;19.77;11.30;;;;;;;;;;5045911;28;20087;-64
2022/04/21 01:14:05;;;;;;;19.95;11.70;;;;;;;;;;5062781;28;20189;-64
2022/04/21 01:16:31;;;;;;;20.83;12.23;;;;;;;;;;5063512;28;20419;-64
2022/04/21 01:18:57;;;;;;;22.20;12.15;;;;;;;;;;5064153;28;20049;-64
2022/04/21 01:21:23;;;;;;;20.30;12.52;;;;;;;;;;5065628;28;20044;-64
2022/04/21 01:23:49;;;;;;;19.77;11.93;;;;;;;;;;5063685;28;20040;-64
2022/04/21 01:26:17;;;;;;;22.00;12.07;;;;;;;;;;5055721;28;20041;-64
2022/04/21 01:28:44;;;;;;;20.58;13.15;;;;;;;;;;5057849;28;20043;-64
2022/04/21 01:31:10;;;;;;;22.10;12.20;;;;;;;;;;5060855;28;20477;-64
2022/04/21 01:33:37;;;;;;;21.35;12.10;;;;;;;;;;5043415;28;20407;-65
2022/04/21 01:36:04;;;;;;;23.88;13.50;;;;;;;;;;5063796;28;20046;-65
2022/04/21 01:41:15;;;;;;;27.38;13.68;;;;;;;;;;5063529;28;20476;-65
2022/04/21 01:43:43;;;;;;;20.17;12.27;;;;;;;;;;5063846;28;20040;-64
2022/04/21 01:46:10;;;;;;;21.95;12.75;;;;;;;;;;5063735;28;20048;-64
2022/04/21 01:48:37;;;;;;;22.77;13.40;;;;;;;;;;5065523;28;20143;-64
2022/04/21 01:51:03;;;;;;;18.92;12.48;;;;;;;;;;5064499;28;20040;-64
2022/04/21 01:53:29;;;;;;;19.92;12.77;;;;;;;;;;5066585;28;20107;-64
2022/04/21 01:55:55;;;;;;;24.35;13.50;;;;;;;;;;5041949;28;20051;-64
2022/04/21 01:58:21;;;;;;;23.55;14.63;;;;;;;;;;5065851;28;20085;-65
2022/04/21 02:00:48;;;;;;;21.88;13.20;;;;;;;;;;5066437;28;20037;-64
2022/04/21 02:03:14;;;;;;;22.27;13.75;;;;;;;;;;5048891;28;20440;-64
2022/04/21 02:05:40;;;;;;;21.58;12.75;;;;;;;;;;5063894;28;20048;-64
2022/04/21 02:08:07;;;;;;;22.90;13.70;;;;;;;;;;5046554;28;20028;-64
2022/04/21 02:10:33;;;;;;;21.35;14.50;;;;;;;;;;5062456;28;20559;-65
2022/04/21 02:13:00;;;;;;;21.02;13.55;;;;;;;;;;5063800;28;20055;-64
2022/04/21 02:15:26;;;;;;;21.38;13.77;;;;;;;;;;5063836;28;20407;-64
2022/04/21 02:17:53;;;;;;;23.15;14.45;;;;;;;;;;5061969;28;20055;-64
2022/04/21 02:20:20;;;;;;;24.95;15.40;;;;;;;;;;5064169;28;20040;-65
2022/04/21 02:22:47;;;;;;;22.23;14.13;;;;;;;;;;5062525;28;20037;-65
2022/04/21 02:25:15;;;;;;;22.98;14.05;;;;;;;;;;5046880;28;20424;-64
2022/04/21 02:27:42;;;;;;;21.35;13.25;;;;;;;;;;5064581;28;20629;-65
2022/04/21 02:30:09;;;;;;;21.05;14.60;;;;;;;;;;5042149;28;20045;-64
2022/04/21 02:32:36;;;;;;;23.80;14.95;;;;;;;;;;5041965;28;20049;-64
2022/04/21 02:35:02;;;;;;;23.83;13.30;;;;;;;;;;5056892;28;20225;-64
2022/04/21 02:37:29;;;;;;;22.27;13.77;;;;;;;;;;5034366;28;20045;-64
2022/04/21 02:39:55;;;;;;;27.52;14.13;;;;;;;;;;5037381;28;20055;-64
2022/04/21 02:42:21;;;;;;;24.52;13.20;;;;;;;;;;5041101;28;20417;-64
2022/04/21 02:44:48;;;;;;;22.63;13.30;;;;;;;;;;5039044;28;21679;-64
2022/04/21 02:47:14;;;;;;;21.42;13.98;;;;;;;;;;5037888;28;20167;-64
2022/04/21 02:49:46;;;;;;;20.77;13.38;;;;;;;;;;5041194;28;20128;-64
2022/04/21 02:52:12;;;;;;;19.60;13.35;;;;;;;;;;5040372;28;20057;-64
2022/04/21 02:57:24;;;;;;;23.40;14.10;;;;;;;;;;5042775;28;20075;-64
2022/04/21 02:59:51;;;;;;;22.98;12.95;;;;;;;;;;5039411;28;20140;-64
2022/04/21 03:02:18;;;;;;;19.00;13.02;;;;;;;;;;5040287;28;20476;-64
2022/04/21 03:04:44;;;;;;;21.98;13.20;;;;;;;;;;5045209;28;20045;-64
2022/04/21 03:07:11;;;;;;;24.00;12.93;;;;;;;;;;5038183;28;20404;-64
2022/04/21 03:09:37;;;;;;;22.45;13.18;;;;;;;;;;5040774;28;20082;-64
2022/04/21 03:12:03;;;;;;;22.90;13.50;;;;;;;;;;5045052;28;20481;-64
2022/04/21 03:14:30;;;;;;;20.05;12.52;;;;;;;;;;5045377;28;20066;-64
2022/04/21 03:16:57;;;;;;;20.80;12.70;;;;;;;;;;5043008;28;20049;-65
2022/04/21 03:19:23;;;;;;;18.25;12.13;;;;;;;;;;5022195;28;20049;-64
2022/04/21 03:24:34;;;;;;;20.58;12.57;;;;;;;;;;5042604;28;20081;-64
2022/04/21 03:27:00;;;;;;;22.08;13.18;;;;;;;;;;5043019;28;20045;-64
2022/04/21 03:29:26;;;;;;;21.23;12.05;;;;;;;;;;5043717;28;20045;-65
2022/04/21 03:31:53;;;;;;;19.63;11.88;;;;;;;;;;5044713;28;20132;-65
2022/04/21 03:34:19;;;;;;;20.77;12.35;;;;;;;;;;5041955;28;20188;-64
2022/04/21 03:36:48;;;;;;;18.50;11.63;;;;;;;;;;5049571;28;20139;-64
2022/04/21 03:39:15;;;;;;;18.95;11.77;;;;;;;;;;5067952;28;20036;-65
2022/04/21 03:41:41;;;;;;;23.10;11.93;;;;;;;;;;5061806;28;20045;-64
2022/04/21 03:44:07;;;;;;;22.67;13.68;;;;;;;;;;5064523;28;20045;-65
2022/04/21 03:46:33;;;;;;;19.55;12.55;;;;;;;;;;5066812;28;20045;-64
2022/04/21 03:49:00;;;;;;;17.15;12.35;;;;;;;;;;5067637;28;20044;-64
2022/04/21 03:51:27;;;;;;;19.38;12.25;;;;;;;;;;5065200;28;20102;-64
2022/04/21 03:53:54;;;;;;;18.20;11.75;;;;;;;;;;5065227;28;20118;-64
2022/04/21 03:56:21;;;;;;;17.15;11.35;;;;;;;;;;5066543;28;20094;-64
2022/04/21 03:58:47;;;;;;;17.40;11.68;;;;;;;;;;5067048;28;20074;-64
2022/04/21 04:01:13;;;;;;;19.25;11.70;;;;;;;;;;5063697;28;20053;-65
2022/04/21 04:03:39;;;;;;;20.33;11.98;;;;;;;;;;5065415;28;20082;-64
2022/04/21 04:10:51;;;;;;;22.48;11.43;;;;;;;;;;5067757;28;20132;-65
2022/04/21 04:11:37;;;;;;;18.35;11.52;;;;;;;;;;5066461;28;20070;-64
2022/04/21 04:14:05;;;;;;;18.63;10.93;;;;;;;;;;5047374;28;20136;-65
2022/04/21 04:16:34;;;;;;;17.83;10.90;;;;;;;;;;5066736;28;20049;-64
2022/04/21 04:19:03;;;;;;;17.15;11.82;;;;;;;;;;5067446;28;20040;-64
2022/04/21 04:21:30;;;;;;;17.88;10.40;;;;;;;;;;5064464;28;20055;-64
2022/04/21 04:23:57;;;;;;;18.63;11.90;;;;;;;;;;5061834;28;20224;-65
2022/04/21 04:26:23;;;;;;;19.30;10.77;;;;;;;;;;5066684;28;20076;-64
2022/04/21 04:28:49;;;;;;;17.95;11.10;;;;;;;;;;5066503;28;20176;-64
2022/04/21 04:31:15;;;;;;;17.55;10.98;;;;;;;;;;5040448;28;20055;-64
2022/04/21 04:33:42;;;;;;;17.55;10.55;;;;;;;;;;5064534;28;20041;-64
2022/04/21 04:36:10;;;;;;;15.77;9.98;;;;;;;;;;5049128;28;20037;-65
2022/04/21 04:38:38;;;;;;;16.90;10.90;;;;;;;;;;5041527;28;20056;-64
2022/04/21 04:43:50;;;;;;;16.45;10.27;;;;;;;;;;5056199;28;20045;-64
2022/04/21 04:46:35;;;;;;;17.98;10.55;;;;;;;;;;5064914;28;20049;-65
2022/04/21 04:49:02;;;;;;;16.58;10.15;;;;;;;;;;5067860;28;20047;-64
2022/04/21 04:51:28;;;;;;;17.23;10.50;;;;;;;;;;5065741;28;20051;-65
2022/04/21 04:53:54;;;;;;;16.88;9.80;;;;;;;;;;5065183;28;20081;-64
2022/04/21 04:56:22;;;;;;;16.42;9.95;;;;;;;;;;5048385;28;20098;-64
2022/04/21 04:58:48;;;;;;;15.65;9.55;;;;;;;;;;5064225;28;20044;-64
2022/04/21 05:01:19;;;;;;;23.30;10.88;;;;;;;;;;5066460;28;20041;-64
2022/04/21 05:03:45;;;;;;;14.15;9.98;;;;;;;;;;5045507;28;20060;-65
2022/04/21 05:06:11;;;;;;;15.48;9.40;;;;;;;;;;5063152;28;20048;-64
2022/04/21 05:08:37;;;;;;;14.98;9.70;;;;;;;;;;5045075;28;20045;-64
2022/04/21 05:11:03;;;;;;;16.58;10.40;;;;;;;;;;5064763;28;20032;-64
2022/04/21 05:13:30;;;;;;;16.58;10.02;;;;;;;;;;5048816;28;20036;-64
2022/04/21 05:15:56;;;;;;;14.80;10.30;;;;;;;;;;5064509;28;20044;-64
2022/04/21 05:18:22;;;;;;;18.60;9.98;;;;;;;;;;5066125;28;20101;-64
2022/04/21 05:20:48;;;;;;;15.50;11.10;;;;;;;;;;5065755;28;20050;-64
2022/04/21 05:23:17;;;;;;;17.50;11.13;;;;;;;;;;5049910;28;20028;-64
2022/04/21 05:25:43;;;;;;;13.82;10.43;;;;;;;;;;5065468;28;20351;-64
2022/04/21 05:28:10;;;;;;;16.48;10.77;;;;;;;;;;5062933;28;20468;-64
2022/04/21 05:30:56;;;;;;;18.20;10.30;;;;;;;;;;5046144;28;20106;-64
2022/04/21 05:33:24;;;;;;;14.60;9.65;;;;;;;;;;5042108;28;20437;-64
2022/04/21 05:35:50;;;;;;;14.75;9.35;;;;;;;;;;5069149;28;20051;-64
2022/04/21 05:38:19;;;;;;;16.58;9.98;;;;;;;;;;5064977;28;20110;-66
2022/04/21 05:40:45;;;;;;;14.23;9.73;;;;;;;;;;5048504;28;20049;-63
2022/04/21 05:43:12;;;;;;;15.80;10.63;;;;;;;;;;5067935;28;20352;-64
2022/04/21 05:45:38;;;;;;;14.98;9.77;;;;;;;;;;5069626;28;20348;-64
2022/04/21 05:48:05;;;;;;;15.13;9.35;;;;;;;;;;5068314;28;20744;-64
2022/04/21 05:50:32;;;;;;;12.70;9.10;;;;;;;;;;5040818;28;20044;-64
2022/04/21 05:53:01;;;;;;;14.63;9.32;;;;;;;;;;5059906;28;20032;-63
2022/04/21 05:55:29;;;;;;;17.25;10.15;;;;;;;;;;5041881;28;20520;-66
2022/04/21 05:57:55;;;;;;;13.32;9.27;;;;;;;;;;5037793;28;20399;-64
2022/04/21 06:00:21;;;;;;;15.80;9.90;;;;;;;;;;5059429;28;20449;-65
2022/04/21 06:02:48;;;;;;;14.27;9.30;;;;;;;;;;5063282;28;20078;-64
2022/04/21 06:05:14;;;;;;;16.02;10.10;;;;;;;;;;5046721;28;20066;-64
2022/04/21 06:07:40;;;;;;;15.40;9.93;;;;;;;;;;5042476;28;20040;-64
2022/04/21 06:10:07;;;;;;;19.20;10.65;;;;;;;;;;5059121;28;20055;-65
2022/04/21 06:12:34;;;;;;;17.42;10.25;;;;;;;;;;5062363;28;20041;-65
2022/04/21 06:15:00;;;;;;;14.60;10.10;;;;;;;;;;5044267;28;20135;-64
2022/04/21 06:17:27;;;;;;;14.70;9.68;;;;;;;;;;5062463;28;20086;-65
2022/04/21 06:19:53;;;;;;;17.63;9.48;;;;;;;;;;5062465;28;20377;-64
2022/04/21 06:22:19;;;;;;;17.30;9.65;;;;;;;;;;5060480;28;20048;-65
2022/04/21 06:24:45;;;;;;;17.75;9.52;;;;;;;;;;5064267;28;20040;-64
2022/04/21 06:27:11;;;;;;;17.40;9.65;;;;;;;;;;5062982;28;20082;-65
2022/04/21 06:29:37;;;;;;;20.52;9.70;;;;;;;;;;5054145;28;20119;-64
2022/04/21 06:32:04;;;;;;;16.77;10.30;;;;;;;;;;5059464;28;20079;-64
2022/04/21 06:34:32;;;;;;;16.50;9.73;;;;;;;;;;5057812;28;20066;-64
2022/04/21 06:37:00;;;;;;;14.82;9.45;;;;;;;;;;5056944;28;20076;-65
2022/04/21 06:39:26;;;;;;;14.73;9.77;;;;;;;;;;5059412;28;20058;-64
2022/04/21 06:41:52;;;;;;;15.07;9.77;;;;;;;;;;5043216;28;20076;-64
2022/04/21 06:49:48;;;;;;;13.95;8.77;;;;;;;;;;5058218;28;20044;-65
2022/04/21 06:52:14;;;;;;;13.15;9.20;;;;;;;;;;5043327;28;20843;-65
2022/04/21 06:54:40;;;;;;;14.60;8.38;;;;;;;;;;5019042;28;20045;-65
2022/04/21 06:57:06;;;;;;;14.75;8.98;;;;;;;;;;5043422;28;20052;-65
2022/04/21 06:59:32;;;;;;;14.05;9.15;;;;;;;;;;5042488;28;20470;-65
2022/04/21 07:01:58;;;;;;;13.60;8.55;;;;;;;;;;5041462;28;20834;-65
2022/04/21 07:04:27;;;;;;;13.52;9.20;;;;;;;;;;5043537;28;20140;-65
2022/04/21 07:06:54;;;;;;;15.68;8.25;;;;;;;;;;5035481;28;20067;-65
2022/04/21 07:09:20;;;;;;;15.00;8.52;;;;;;;;;;5060922;28;20384;-64
2022/04/21 07:11:47;;;;;;;13.45;8.02;;;;;;;;;;5062563;28;20036;-65
2022/04/21 07:14:13;;;;;;;16.00;7.22;;;;;;;;;;5062390;28;20416;-65
2022/04/21 07:16:39;;;;;;;11.90;7.25;;;;;;;;;;5048257;28;20067;-65
2022/04/21 07:19:05;;;;;;;15.80;7.78;;;;;;;;;;5064449;28;20040;-65
2022/04/21 07:21:31;;;;;;;10.23;6.57;;;;;;;;;;5066094;28;20404;-65
2022/04/21 07:23:58;;;;;;;10.93;6.15;;;;;;;;;;5066714;28;20119;-65
2022/04/21 07:26:24;;;;;;;8.55;4.88;;;;;;;;;;5066997;28;20049;-65
2022/04/21 07:28:50;;;;;;;9.15;5.28;;;;;;;;;;5066170;28;20033;-65
2022/04/21 07:31:16;;;;;;;8.60;5.30;;;;;;;;;;5066906;28;20053;-64
2022/04/21 07:33:42;;;;;;;8.30;4.82;;;;;;;;;;5066790;28;20504;-65
2022/04/21 07:36:09;;;;;;;10.65;5.18;;;;;;;;;;5065199;28;20502;-65
2022/04/21 07:38:36;;;;;;;8.82;4.80;;;;;;;;;;5065041;28;20122;-63
2022/04/21 07:41:02;;;;;;;8.10;4.78;;;;;;;;;;5063840;28;20041;-65
2022/04/21 07:43:29;;;;;;;11.32;4.78;;;;;;;;;;5046209;28;20048;-65
2022/04/21 07:45:55;;;;;;;8.02;4.25;;;;;;;;;;5047931;28;20105;-65
2022/04/21 07:48:21;;;;;;;11.63;5.22;;;;;;;;;;5066128;28;20033;-65
2022/04/21 07:50:47;;;;;;;10.85;4.65;;;;;;;;;;5048511;28;20050;-69
2022/04/21 07:53:13;;;;;;;8.07;4.32;;;;;;;;;;5049330;28;20052;-66
2022/04/21 07:55:40;;;;;;;7.10;3.80;;;;;;;;;;5064616;28;20041;-65
2022/04/21 07:58:06;;;;;;;7.40;4.05;;;;;;;;;;5067021;28;20373;-65
2022/04/21 08:00:38;;;;;;;7.38;3.70;;;;;;;;;;5065760;28;20240;-65
2022/04/21 08:03:05;;;;;;;6.20;3.95;;;;;;;;;;5067328;28;20044;-65
2022/04/21 08:05:31;;;;;;;5.22;3.33;;;;;;;;;;5046748;28;20166;-65
2022/04/21 08:07:58;;;;;;;6.72;3.90;;;;;;;;;;5047895;28;20055;-65
2022/04/21 08:10:27;;;;;;;7.72;3.55;;;;;;;;;;5048594;28;20116;-65
2022/04/21 08:12:54;;;;;;;6.55;3.97;;;;;;;;;;5043925;28;20056;-65
2022/04/21 08:15:21;;;;;;;5.57;3.50;;;;;;;;;;5029638;28;20149;-65
2022/04/21 08:17:47;;;;;;;6.60;3.75;;;;;;;;;;5064025;28;20385;-65
2022/04/21 08:20:14;;;;;;;6.10;3.10;;;;;;;;;;5065260;28;20063;-63
2022/04/21 08:22:40;;;;;;;6.43;3.67;;;;;;;;;;5065664;28;20075;-65
2022/04/21 08:33:24;;;;;;;7.15;3.78;;;;;;;;;;5047760;28;20847;-65
2022/04/21 08:35:51;;;;;;;5.80;3.63;;;;;;;;;;5066488;28;20136;-65
2022/04/21 08:38:17;;;;;;;5.57;2.58;;;;;;;;;;5064478;28;20057;-65
2022/04/21 08:40:49;;;;;;;5.85;2.53;;;;;;;;;;5047161;28;20441;-65
2022/04/21 08:43:16;;;;;;;5.05;2.80;;;;;;;;;;5049193;28;20041;-65
2022/04/21 08:45:43;;;;;;;3.92;2.25;;;;;;;;;;5046905;28;20519;-65
2022/04/21 08:48:11;;;;;;;4.38;2.60;;;;;;;;;;5064324;28;20037;-64
2022/04/21 08:50:38;;;;;;;6.90;2.15;;;;;;;;;;5065462;28;20071;-65
2022/04/21 08:53:05;;;;;;;8.07;2.83;;;;;;;;;;5044239;28;20052;-65
2022/04/21 08:55:32;;;;;;;18.55;3.00;;;;;;;;;;5063016;28;20040;-65
2022/04/21 08:57:59;;;;;;;8.07;2.50;;;;;;;;;;5066527;28;20036;-65
2022/04/21 09:00:25;;;;;;;4.22;2.05;;;;;;;;;;5046810;28;20131;-66
2022/04/21 09:02:53;;;;;;;10.43;2.38;;;;;;;;;;5046457;28;20045;-65
2022/04/21 09:05:22;;;;;;;4.88;2.33;;;;;;;;;;5046892;28;20118;-65
2022/04/21 09:07:50;;;;;;;24.83;3.70;;;;;;;;;;5067824;28;20037;-65
2022/04/21 09:10:17;;;;;;;11.90;3.03;;;;;;;;;;5068092;28;20052;-65
2022/04/21 09:12:44;;;;;;;7.03;2.85;;;;;;;;;;5068162;28;20055;-65
2022/04/21 09:15:12;;;;;;;8.90;2.65;;;;;;;;;;5065233;28;20169;-65
2022/04/21 09:17:40;;;;;;;35.58;5.30;;;;;;;;;;5049436;28;20551;-66
2022/04/21 09:20:07;;;;;;;5.88;2.42;;;;;;;;;;5068615;28;20136;-66
2022/04/21 09:22:34;;;;;;;5.38;2.75;;;;;;;;;;5065644;28;20060;-65
2022/04/21 09:25:00;;;;;;;8.38;3.30;;;;;;;;;;5066785;28;20045;-65
2022/04/21 09:27:39;;;;;;;5.32;2.83;;;;;;;;;;5068223;28;20037;-65
2022/04/21 09:30:10;;;;;;;8.50;2.92;;;;;;;;;;5065932;28;20044;-65
2022/04/21 09:32:37;;;;;;;8.13;3.45;;;;;;;;;;5046280;28;20446;-65
2022/04/21 09:35:04;;;;;;;5.82;3.08;;;;;;;;;;5066047;28;20049;-65
2022/04/21 09:37:30;;;;;;;5.63;2.58;;;;;;;;;;5045444;28;20154;-64
2022/04/21 09:39:56;;;;;;;6.75;3.25;;;;;;;;;;5060314;28;20360;-64
2022/04/21 09:42:24;;;;;;;7.10;3.50;;;;;;;;;;5063008;28;20387;-65
2022/04/21 09:47:35;;;;;;;6.20;3.15;;;;;;;;;;5065051;28;20429;-65
2022/04/21 09:50:11;;;;;;;6.13;2.97;;;;;;;;;;5066021;28;20582;-65
2022/04/21 09:52:37;;;;;;;5.68;2.97;;;;;;;;;;5067329;28;20062;-65
2022/04/21 09:55:22;;;;;;;5.85;3.50;;;;;;;;;;5068154;28;20044;-66
2022/04/21 09:57:52;;;;;;;6.78;2.97;;;;;;;;;;5065767;28;20090;-66
2022/04/21 10:00:21;;;;;;;5.80;2.97;;;;;;;;;;5067403;28;20079;-66
2022/04/21 10:02:49;;;;;;;5.00;2.95;;;;;;;;;;5063744;28;20045;-65
2022/04/21 10:05:16;;;;;;;5.97;3.15;;;;;;;;;;5064446;28;20040;-66
2022/04/21 10:07:42;;;;;;;6.85;3.13;;;;;;;;;;5065283;28;20444;-66
2022/04/21 10:10:10;;;;;;;4.70;2.90;;;;;;;;;;5044040;28;21426;-66
2022/04/21 10:12:36;;;;;;;7.03;3.58;;;;;;;;;;5058643;28;20040;-66
2022/04/21 10:15:04;;;;;;;7.28;3.33;;;;;;;;;;5045801;28;20078;-66
2022/04/21 10:17:30;;;;;;;6.93;3.60;;;;;;;;;;5060871;28;20040;-66
2022/04/21 10:19:56;;;;;;;8.82;3.33;;;;;;;;;;5049390;28;20057;-66
2022/04/21 10:22:22;;;;;;;7.63;2.75;;;;;;;;;;5063438;28;20033;-66
2022/04/21 10:24:49;;;;;;;5.88;2.78;;;;;;;;;;5066181;28;20037;-66
2022/04/21 10:27:34;;;;;;;6.35;2.65;;;;;;;;;;5066656;28;20547;-66
2022/04/21 10:30:00;;;;;;;5.28;2.80;;;;;;;;;;5065754;28;20310;-66
2022/04/21 10:32:46;;;;;;;7.72;3.15;;;;;;;;;;5050001;28;20098;-65
2022/04/21 10:35:34;;;;;;;5.97;3.33;;;;;;;;;;5047437;28;20044;-65
2022/04/21 10:38:17;;;;;;;8.75;3.20;;;;;;;;;;5060800;28;20110;-65
2022/04/21 10:41:07;;;;;;;9.27;3.08;;;;;;;;;;5067521;28;20109;-66
2022/04/21 10:44:05;;;;;;;4.72;2.70;;;;;;;;;;5053154;28;20240;-66
2022/04/21 10:46:31;;;;;;;5.93;3.05;;;;;;;;;;5051447;28;20048;-65
2022/04/21 10:48:59;;;;;;;6.68;3.60;;;;;;;;;;5052894;28;20388;-66
2022/04/21 10:57:36;;;;;;;8.75;3.58;;;;;;;;;;5053650;28;20471;-66
2022/04/21 11:00:03;;;;;;;5.68;3.15;;;;;;;;;;5052815;28;20153;-66
2022/04/21 11:02:44;;;;;;;5.13;3.10;;;;;;;;;;5049935;28;20123;-66
2022/04/21 11:05:22;;;;;;;6.18;3.05;;;;;;;;;;5068743;28;20036;-66
2022/04/21 11:07:53;;;;;;;7.20;2.78;;;;;;;;;;5068657;28;20044;-66
2022/04/21 11:10:42;;;;;;;6.70;3.17;;;;;;;;;;5068660;28;20044;-66
2022/04/21 11:13:10;;;;;;;5.75;3.70;;;;;;;;;;5050207;28;20044;-66
2022/04/21 11:15:38;;;;;;;6.18;3.38;;;;;;;;;;5064540;28;20049;-66
2022/04/21 11:18:09;;;;;;;5.25;3.53;;;;;;;;;;5049540;28;20052;-66
2022/04/21 11:20:35;;;;;;;5.20;3.55;;;;;;;;;;5068194;28;20040;-65
2022/04/21 11:23:01;;;;;;;13.55;3.50;;;;;;;;;;5064824;28;20051;-66
2022/04/21 11:25:32;;;;;;;6.93;3.63;;;;;;;;;;5065468;28;20048;-66
2022/04/21 11:28:00;;;;;;;7.63;3.28;;;;;;;;;;5065477;28;20051;-65
2022/04/21 11:30:26;;;;;;;7.38;3.47;;;;;;;;;;5066113;28;20049;-64
2022/04/21 11:32:52;;;;;;;6.38;2.90;;;;;;;;;;5068970;28;20056;-66
2022/04/21 11:35:22;;;;;;;7.35;3.42;;;;;;;;;;5066369;28;20424;-65
2022/04/21 11:37:48;;;;;;;8.07;3.45;;;;;;;;;;5065287;28;20051;-66
2022/04/21 11:40:19;;;;;;;6.25;3.00;;;;;;;;;;5050573;28;20139;-66
2022/04/21 11:42:47;;;;;;;7.70;2.55;;;;;;;;;;5050955;28;20583;-66
2022/04/21 11:45:17;;;;;;;8.82;3.20;;;;;;;;;;5067262;28;20072;-66
2022/04/21 11:47:43;;;;;;;7.82;2.80;;;;;;;;;;5067477;28;20041;-66
2022/04/21 11:50:13;;;;;;;5.43;2.88;;;;;;;;;;5065041;28;20089;-66
2022/04/21 11:52:42;;;;;;;8.15;2.88;;;;;;;;;;5068941;28;20515;-66
2022/04/21 11:55:10;;;;;;;8.05;3.47;;;;;;;;;;5067725;28;20048;-66
2022/04/21 11:57:41;;;;;;;5.93;2.90;;;;;;;;;;5067275;28;20108;-66
2022/04/21 12:00:08;;;;;;;6.45;3.35;;;;;;;;;;5067892;28;20062;-66
2022/04/21 12:08:13;;;;;;;8.55;3.53;;;;;;;;;;5067050;28;20105;-66
2022/04/21 12:10:41;;;;;;;7.30;3.13;;;;;;;;;;5066935;28;20152;-65
2022/04/21 12:13:08;;;;;;;7.40;3.22;;;;;;;;;;5065275;28;20052;-66
2022/04/21 12:15:36;;;;;;;6.18;2.80;;;;;;;;;;5067328;28;20048;-66
2022/04/21 12:18:03;;;;;;;9.35;3.30;;;;;;;;;;5067272;28;20119;-66
2022/04/21 12:20:30;;;;;;;5.70;3.47;;;;;;;;;;5049671;28;20060;-66
2022/04/21 12:22:56;;;;;;;6.20;3.00;;;;;;;;;;5066280;28;20404;-66
2022/04/21 12:25:31;;;;;;;5.20;2.95;;;;;;;;;;5059404;28;20492;-66
2022/04/21 12:28:02;;;;;;;7.15;3.28;;;;;;;;;;5064975;28;20183;-66
2022/04/21 12:30:29;;;;;;;8.25;3.17;;;;;;;;;;5064399;28;20376;-66
2022/04/21 12:32:55;;;;;;;4.82;2.85;;;;;;;;;;5069652;28;20041;-66
2022/04/21 12:35:40;;;;;;;9.63;4.05;;;;;;;;;;5066698;28;20037;-66
2022/04/21 12:40:52;;;;;;;19.02;3.58;;;;;;;;;;5069010;28;20051;-66
2022/04/21 12:43:18;;;;;;;10.25;3.55;;;;;;;;;;5072579;28;20048;-66
2022/04/21 12:45:44;;;;;;;16.52;3.92;;;;;;;;;;5071105;28;20480;-66
2022/04/21 12:48:22;;;;;;;9.25;3.30;;;;;;;;;;5072045;28;20472;-66
2022/04/21 12:50:49;;;;;;;7.75;3.25;;;;;;;;;;5053390;28;20044;-66
2022/04/21 12:53:29;;;;;;;7.40;2.90;;;;;;;;;;5054553;28;20739;-66
2022/04/21 12:55:56;;;;;;;11.13;2.70;;;;;;;;;;5069313;28;20431;-66
2022/04/21 12:58:31;;;;;;;7.30;2.88;;;;;;;;;;5071452;28;20488;-66
2022/04/21 13:01:00;;;;;;;5.35;2.63;;;;;;;;;;5053125;28;20124;-66
2022/04/21 13:03:27;;;;;;;4.85;2.50;;;;;;;;;;5071049;28;20500;-66
2022/04/21 13:05:55;;;;;;;9.20;3.00;;;;;;;;;;5070968;28;20153;-66
2022/04/21 13:08:22;;;;;;;5.53;2.67;;;;;;;;;;5067120;28;20112;-66
2022/04/21 13:10:49;;;;;;;12.50;2.92;;;;;;;;;;5072004;28;20128;-66
2022/04/21 13:13:15;;;;;;;5.85;2.40;;;;;;;;;;5067427;28;20068;-66
2022/04/21 13:15:42;;;;;;;8.75;2.85;;;;;;;;;;5052739;28;20568;-66
2022/04/21 13:18:08;;;;;;;9.25;2.95;;;;;;;;;;5070646;28;20071;-66
2022/04/21 13:23:23;;;;;;;5.93;2.58;;;;;;;;;;5051791;28;20044;-66
2022/04/21 13:25:50;;;;;;;5.47;2.85;;;;;;;;;;5046978;28;20047;-66
2022/04/21 13:28:16;;;;;;;5.53;3.00;;;;;;;;;;5064872;28;20032;-66
2022/04/21 13:30:42;;;;;;;10.07;2.80;;;;;;;;;;5066879;28;20400;-66
2022/04/21 13:33:22;;;;;;;8.07;3.05;;;;;;;;;;5067362;28;20040;-66
2022/04/21 13:35:51;;;;;;;6.95;2.90;;;;;;;;;;5065502;28;20553;-66
2022/04/21 13:38:17;;;;;;;6.05;2.50;;;;;;;;;;5065372;28;20060;-66
2022/04/21 13:40:44;;;;;;;5.07;2.13;;;;;;;;;;5066453;28;20049;-67
2022/04/21 13:43:10;;;;;;;6.22;2.65;;;;;;;;;;5062049;28;20056;-66
2022/04/21 13:45:37;;;;;;;9.45;2.70;;;;;;;;;;5046515;28;20052;-66
2022/04/21 13:48:04;;;;;;;7.75;2.58;;;;;;;;;;5064463;28;20044;-66
2022/04/21 13:50:30;;;;;;;10.52;2.65;;;;;;;;;;5061004;28;20548;-78
2022/04/21 13:52:56;;;;;;;5.97;2.60;;;;;;;;;;5042630;28;20044;-66
2022/04/21 13:55:23;;;;;;;6.50;2.60;;;;;;;;;;5060497;28;20049;-67
2022/04/21 13:57:49;;;;;;;6.15;2.58;;;;;;;;;;5058377;28;20044;-66
2022/04/21 14:00:15;;;;;;;7.38;2.70;;;;;;;;;;5061167;28;20144;-66
2022/04/21 14:02:41;;;;;;;13.63;3.88;;;;;;;;;;5059129;28;20055;-66
2022/04/21 14:05:07;;;;;;;8.60;2.83;;;;;;;;;;5044351;28;20041;-66
2022/04/21 14:07:33;;;;;;;6.90;2.90;;;;;;;;;;5068138;28;20157;-66
2022/04/21 14:10:00;;;;;;;5.32;2.58;;;;;;;;;;5066910;28;20119;-66
2022/04/21 14:12:29;;;;;;;5.38;2.70;;;;;;;;;;5049977;28;20477;-66
2022/04/21 14:14:55;;;;;;;5.05;3.10;;;;;;;;;;5044311;28;20496;-66
2022/04/21 14:17:22;;;;;;;18.30;3.28;;;;;;;;;;5048762;28;20041;-66
2022/04/21 14:19:48;;;;;;;11.45;3.35;;;;;;;;;;5047061;28;20051;-67
2022/04/21 14:22:14;;;;;;;9.10;2.70;;;;;;;;;;5050275;28;20071;-66
2022/04/21 14:24:40;;;;;;;4.75;2.70;;;;;;;;;;5043606;28;20041;-66
2022/04/21 14:27:06;;;;;;;10.10;3.22;;;;;;;;;;5066489;28;20074;-66
2022/04/21 14:29:32;;;;;;;18.45;3.50;;;;;;;;;;5066693;28;20039;-66
2022/04/21 14:31:59;;;;;;;61.50;7.10;;;;;;;;;;5065156;28;20044;-66
2022/04/21 14:34:25;;;;;;;7.65;3.47;;;;;;;;;;5066678;28;20044;-66
2022/04/21 14:36:52;;;;;;;5.25;3.00;;;;;;;;;;5067480;28;20065;-67
2022/04/21 14:44:50;;;;;;;7.15;2.90;;;;;;;;;;5049160;28;20123;-66
2022/04/21 14:47:17;;;;;;;8.02;2.67;;;;;;;;;;5065441;28;20385;-66
2022/04/21 14:49:43;;;;;;;7.72;3.28;;;;;;;;;;5043625;28;20457;-66
2022/04/21 14:52:10;;;;;;;9.90;3.33;;;;;;;;;;5049987;28;20047;-66
2022/04/21 14:54:36;;;;;;;10.25;3.42;;;;;;;;;;5039617;28;20056;-66
2022/04/21 14:57:03;;;;;;;6.53;3.20;;;;;;;;;;5066882;28;20150;-66
2022/04/21 14:59:29;;;;;;;9.27;2.70;;;;;;;;;;5067988;28;20040;-66
2022/04/21 15:01:55;;;;;;;8.25;3.25;;;;;;;;;;5063000;28;20354;-66
2022/04/21 15:04:21;;;;;;;7.53;4.07;;;;;;;;;;5048840;28;20036;-66
2022/04/21 15:06:48;;;;;;;6.00;3.60;;;;;;;;;;5044891;28;20044;-66
2022/04/21 15:09:15;;;;;;;6.68;3.45;;;;;;;;;;5062623;28;20507;-66
2022/04/21 15:11:44;;;;;;;10.27;3.83;;;;;;;;;;5048661;28;20190;-66
2022/04/21 15:14:10;;;;;;;8.93;4.13;;;;;;;;;;5063027;28;20508;-67
2022/04/21 15:16:36;;;;;;;8.80;3.83;;;;;;;;;;5045082;28;20040;-66
2022/04/21 15:19:03;;;;;;;9.27;4.65;;;;;;;;;;5028687;28;20369;-66
2022/04/21 15:21:29;;;;;;;6.55;3.78;;;;;;;;;;5065781;28;20560;-66
2022/04/21 15:23:55;;;;;;;8.38;3.75;;;;;;;;;;5067321;28;20045;-66
2022/04/21 15:26:22;;;;;;;5.57;3.50;;;;;;;;;;5067138;28;20048;-66
2022/04/21 15:28:49;;;;;;;11.60;4.43;;;;;;;;;;5046946;28;20060;-67
2022/04/21 15:31:15;;;;;;;9.85;4.30;;;;;;;;;;5070191;28;20056;-67